sensor_id;sensor_type;location;lat;lon;timestamp;pressure;altitude;pressure_sealevel;temperature;humidity
24788;BME280;12883;52.662;5.196;2022-09-06T00:00:10;101628.16;;;20.31;100.00
24788;BME280;12883;52.662;5.196;2022-09-06T00:02:37;101638.69;;;20.33;100.00
24788;BME280;12883;52.662;5.196;2022-09-06T00:05:03;101627.59;;;20.29;100.00
24788;BME280;12883;52.662;5.196;2022-09-06T00:07:29;101631.91;;;20.30;100.00
24788;BME280;12883;52.662;5.196;2022-09-06T00:09:55;101629.72;;;20.27;100.00
24788;BME280;12883;52.662;5.196;2022-09-06T00:12:21;101643.75;;;20.29;100.00
24788;BME280;12883;52.662;5.196;2022-09-06T00:14:47;101649.25;;;20.34;100.00
24788;BME280;12883;52.662;5.196;2022-09-06T00:17:12;101655.59;;;20.28;100.00
24788;BME280;12883;52.662;5.196;2022-09-06T00:19:37;101668.19;;;20.39;100.00
24788;BME280;12883;52.662;5.196;2022-09-06T00:22:03;101647.31;;;20.46;100.00
24788;BME280;12883;52.662;5.196;2022-09-06T00:24:28;101653.41;;;20.42;100.00
24788;BME280;12883;52.662;5.196;2022-09-06T00:26:53;101652.03;;;20.39;100.00
24788;BME280;12883;52.662;5.196;2022-09-06T00:29:19;101656.38;;;20.40;100.00
24788;BME280;12883;52.662;5.196;2022-09-06T00:31:44;101650.56;;;20.32;100.00
24788;BME280;12883;52.662;5.196;2022-09-06T00:34:09;101651.34;;;20.32;100.00
24788;BME280;12883;52.662;5.196;2022-09-06T00:36:35;101637.47;;;20.24;100.00
24788;BME280;12883;52.662;5.196;2022-09-06T00:39:00;101635.44;;;20.31;100.00
24788;BME280;12883;52.662;5.196;2022-09-06T00:41:26;101647.41;;;20.23;100.00
24788;BME280;12883;52.662;5.196;2022-09-06T00:43:51;101644.25;;;20.26;100.00
24788;BME280;12883;52.662;5.196;2022-09-06T00:46:19;101633.38;;;20.21;100.00
24788;BME280;12883;52.662;5.196;2022-09-06T00:48:49;101615.38;;;20.10;100.00
24788;BME280;12883;52.662;5.196;2022-09-06T00:51:17;101628.38;;;20.13;100.00
24788;BME280;12883;52.662;5.196;2022-09-06T00:53:43;101606.97;;;19.95;100.00
24788;BME280;12883;52.662;5.196;2022-09-06T00:56:08;101623.81;;;20.02;100.00
24788;BME280;12883;52.662;5.196;2022-09-06T00:58:34;101623.47;;;19.99;100.00
24788;BME280;12883;52.662;5.196;2022-09-06T01:01:00;101607.53;;;19.97;100.00
24788;BME280;12883;52.662;5.196;2022-09-06T01:03:26;101606.88;;;19.90;100.00
24788;BME280;12883;52.662;5.196;2022-09-06T01:13:59;101601.75;;;19.89;100.00
24788;BME280;12883;52.662;5.196;2022-09-06T01:19:31;101596.75;;;19.81;100.00
24788;BME280;12883;52.662;5.196;2022-09-06T01:28:02;101559.72;;;19.48;100.00
24788;BME280;12883;52.662;5.196;2022-09-06T01:30:37;101581.00;;;19.61;100.00
24788;BME280;12883;52.662;5.196;2022-09-06T01:33:14;101580.31;;;19.54;100.00
24788;BME280;12883;52.662;5.196;2022-09-06T01:36:06;101587.09;;;19.57;100.00
24788;BME280;12883;52.662;5.196;2022-09-06T01:38:33;101578.19;;;19.56;100.00
24788;BME280;12883;52.662;5.196;2022-09-06T01:40:58;101583.56;;;19.56;100.00
24788;BME280;12883;52.662;5.196;2022-09-06T01:43:27;101575.16;;;19.53;100.00
24788;BME280;12883;52.662;5.196;2022-09-06T01:49:01;101584.56;;;19.50;100.00
24788;BME280;12883;52.662;5.196;2022-09-06T01:51:56;101575.66;;;19.50;100.00
24788;BME280;12883;52.662;5.196;2022-09-06T01:57:35;101578.44;;;19.55;100.00
24788;BME280;12883;52.662;5.196;2022-09-06T02:00:08;101585.59;;;19.49;100.00
24788;BME280;12883;52.662;5.196;2022-09-06T02:05:15;101577.88;;;19.41;100.00
24788;BME280;12883;52.662;5.196;2022-09-06T02:07:44;101567.59;;;19.38;100.00
24788;BME280;12883;52.662;5.196;2022-09-06T02:10:25;101553.66;;;19.41;100.00
24788;BME280;12883;52.662;5.196;2022-09-06T02:12:53;101546.75;;;19.45;100.00
24788;BME280;12883;52.662;5.196;2022-09-06T02:15:25;101553.44;;;19.43;100.00
24788;BME280;12883;52.662;5.196;2022-09-06T02:18:01;101531.09;;;19.31;100.00
24788;BME280;12883;52.662;5.196;2022-09-06T02:20:29;101532.03;;;19.36;100.00
24788;BME280;12883;52.662;5.196;2022-09-06T02:23:00;101496.09;;;19.31;100.00
24788;BME280;12883;52.662;5.196;2022-09-06T02:25:33;101519.16;;;19.38;100.00
24788;BME280;12883;52.662;5.196;2022-09-06T02:27:59;101518.66;;;19.41;100.00
24788;BME280;12883;52.662;5.196;2022-09-06T02:30:25;101508.72;;;19.42;100.00
24788;BME280;12883;52.662;5.196;2022-09-06T02:33:04;101505.78;;;19.43;100.00
24788;BME280;12883;52.662;5.196;2022-09-06T02:35:44;101494.44;;;19.41;100.00
24788;BME280;12883;52.662;5.196;2022-09-06T02:38:10;101500.97;;;19.45;100.00
24788;BME280;12883;52.662;5.196;2022-09-06T02:40:35;101507.44;;;19.44;100.00
24788;BME280;12883;52.662;5.196;2022-09-06T02:43:01;101508.94;;;19.40;100.00
24788;BME280;12883;52.662;5.196;2022-09-06T02:45:26;101508.56;;;19.48;100.00
24788;BME280;12883;52.662;5.196;2022-09-06T02:47:51;101490.59;;;19.37;100.00
24788;BME280;12883;52.662;5.196;2022-09-06T02:50:17;101492.22;;;19.38;100.00
24788;BME280;12883;52.662;5.196;2022-09-06T02:52:42;101502.44;;;19.53;100.00
24788;BME280;12883;52.662;5.196;2022-09-06T02:55:08;101506.81;;;19.54;100.00
24788;BME280;12883;52.662;5.196;2022-09-06T02:57:33;101503.38;;;19.58;100.00
24788;BME280;12883;52.662;5.196;2022-09-06T02:59:58;101503.72;;;19.62;100.00
24788;BME280;12883;52.662;5.196;2022-09-06T03:02:24;101496.09;;;19.59;100.00
24788;BME280;12883;52.662;5.196;2022-09-06T03:04:50;101507.13;;;19.57;100.00
24788;BME280;12883;52.662;5.196;2022-09-06T03:07:15;101509.84;;;19.57;100.00
24788;BME280;12883;52.662;5.196;2022-09-06T03:09:40;101504.53;;;19.62;100.00
24788;BME280;12883;52.662;5.196;2022-09-06T03:12:06;101508.59;;;19.65;100.00
24788;BME280;12883;52.662;5.196;2022-09-06T03:14:31;101505.59;;;19.61;100.00
24788;BME280;12883;52.662;5.196;2022-09-06T03:16:56;101512.75;;;19.56;100.00
24788;BME280;12883;52.662;5.196;2022-09-06T03:19:22;101511.47;;;19.58;100.00
24788;BME280;12883;52.662;5.196;2022-09-06T03:21:47;101516.59;;;19.60;100.00
24788;BME280;12883;52.662;5.196;2022-09-06T03:24:12;101511.56;;;19.63;100.00
24788;BME280;12883;52.662;5.196;2022-09-06T03:26:38;101503.00;;;19.66;100.00
24788;BME280;12883;52.662;5.196;2022-09-06T03:29:03;101511.06;;;19.66;100.00
24788;BME280;12883;52.662;5.196;2022-09-06T03:31:29;101513.44;;;19.63;100.00
24788;BME280;12883;52.662;5.196;2022-09-06T03:33:54;101505.59;;;19.61;100.00
24788;BME280;12883;52.662;5.196;2022-09-06T03:36:19;101510.19;;;19.49;100.00
24788;BME280;12883;52.662;5.196;2022-09-06T03:38:45;101507.44;;;19.44;100.00
24788;BME280;12883;52.662;5.196;2022-09-06T03:41:10;101502.50;;;19.41;100.00
24788;BME280;12883;52.662;5.196;2022-09-06T03:43:35;101508.50;;;19.43;100.00
24788;BME280;12883;52.662;5.196;2022-09-06T03:46:01;101518.56;;;19.36;100.00
24788;BME280;12883;52.662;5.196;2022-09-06T03:48:28;101504.78;;;19.33;100.00
24788;BME280;12883;52.662;5.196;2022-09-06T03:50:55;101513.53;;;19.28;100.00
24788;BME280;12883;52.662;5.196;2022-09-06T03:53:22;101507.13;;;19.29;100.00
24788;BME280;12883;52.662;5.196;2022-09-06T03:55:50;101512.41;;;19.24;100.00
24788;BME280;12883;52.662;5.196;2022-09-06T03:58:18;101516.72;;;19.25;100.00
24788;BME280;12883;52.662;5.196;2022-09-06T04:00:44;101513.13;;;19.20;100.00
24788;BME280;12883;52.662;5.196;2022-09-06T04:03:10;101511.22;;;19.20;100.00
24788;BME280;12883;52.662;5.196;2022-09-06T04:05:36;101506.31;;;19.17;100.00
24788;BME280;12883;52.662;5.196;2022-09-06T04:08:02;101510.28;;;19.15;100.00
24788;BME280;12883;52.662;5.196;2022-09-06T04:10:27;101515.91;;;19.13;100.00
24788;BME280;12883;52.662;5.196;2022-09-06T04:12:53;101500.69;;;19.07;100.00
24788;BME280;12883;52.662;5.196;2022-09-06T04:15:18;101519.53;;;19.07;100.00
24788;BME280;12883;52.662;5.196;2022-09-06T04:17:44;101513.94;;;19.09;100.00
24788;BME280;12883;52.662;5.196;2022-09-06T04:20:10;101518.97;;;19.05;100.00
24788;BME280;12883;52.662;5.196;2022-09-06T04:22:36;101517.44;;;19.09;100.00
24788;BME280;12883;52.662;5.196;2022-09-06T04:25:02;101496.28;;;19.01;100.00
24788;BME280;12883;52.662;5.196;2022-09-06T04:27:28;101516.03;;;19.07;100.00
24788;BME280;12883;52.662;5.196;2022-09-06T04:29:53;101522.72;;;19.04;100.00
24788;BME280;12883;52.662;5.196;2022-09-06T04:32:19;101529.72;;;19.05;100.00
24788;BME280;12883;52.662;5.196;2022-09-06T04:34:44;101532.19;;;19.07;100.00
24788;BME280;12883;52.662;5.196;2022-09-06T04:37:10;101516.28;;;19.05;100.00
24788;BME280;12883;52.662;5.196;2022-09-06T04:39:35;101530.06;;;19.09;100.00
24788;BME280;12883;52.662;5.196;2022-09-06T04:42:01;101533.81;;;19.08;100.00
24788;BME280;12883;52.662;5.196;2022-09-06T04:44:26;101528.66;;;19.06;100.00
24788;BME280;12883;52.662;5.196;2022-09-06T04:47:02;101508.69;;;19.02;100.00
24788;BME280;12883;52.662;5.196;2022-09-06T04:49:29;101521.19;;;19.08;100.00
24788;BME280;12883;52.662;5.196;2022-09-06T04:51:54;101522.72;;;19.04;100.00
24788;BME280;12883;52.662;5.196;2022-09-06T04:54:20;101522.72;;;19.04;100.00
24788;BME280;12883;52.662;5.196;2022-09-06T04:56:45;101516.88;;;18.96;100.00
24788;BME280;12883;52.662;5.196;2022-09-06T04:59:10;101526.22;;;18.93;100.00
24788;BME280;12883;52.662;5.196;2022-09-06T05:01:36;101532.59;;;18.87;100.00
24788;BME280;12883;52.662;5.196;2022-09-06T05:04:01;101532.31;;;18.89;100.00
24788;BME280;12883;52.662;5.196;2022-09-06T05:06:26;101537.13;;;18.87;100.00
24788;BME280;12883;52.662;5.196;2022-09-06T05:08:52;101559.00;;;18.90;100.00
24788;BME280;12883;52.662;5.196;2022-09-06T05:11:17;101541.78;;;18.91;100.00
24788;BME280;12883;52.662;5.196;2022-09-06T05:13:44;101547.75;;;18.93;100.00
24788;BME280;12883;52.662;5.196;2022-09-06T05:16:10;101555.59;;;18.95;100.00
24788;BME280;12883;52.662;5.196;2022-09-06T05:18:36;101560.19;;;18.94;100.00
24788;BME280;12883;52.662;5.196;2022-09-06T05:21:01;101557.47;;;18.94;100.00
24788;BME280;12883;52.662;5.196;2022-09-06T05:23:27;101554.91;;;18.88;100.00
24788;BME280;12883;52.662;5.196;2022-09-06T05:25:53;101541.69;;;18.75;100.00
24788;BME280;12883;52.662;5.196;2022-09-06T05:28:19;101535.94;;;18.83;100.00
24788;BME280;12883;52.662;5.196;2022-09-06T05:30:44;101543.78;;;18.84;100.00
24788;BME280;12883;52.662;5.196;2022-09-06T05:33:11;101565.88;;;18.86;100.00
24788;BME280;12883;52.662;5.196;2022-09-06T05:35:37;101548.81;;;18.92;100.00
24788;BME280;12883;52.662;5.196;2022-09-06T05:38:03;101552.09;;;18.94;100.00
24788;BME280;12883;52.662;5.196;2022-09-06T05:40:28;101563.44;;;18.96;100.00
24788;BME280;12883;52.662;5.196;2022-09-06T05:42:54;101567.97;;;18.96;100.00
24788;BME280;12883;52.662;5.196;2022-09-06T05:45:19;101562.16;;;18.87;100.00
24788;BME280;12883;52.662;5.196;2022-09-06T05:47:44;101556.31;;;18.90;100.00
24788;BME280;12883;52.662;5.196;2022-09-06T05:50:10;101543.56;;;18.86;100.00
24788;BME280;12883;52.662;5.196;2022-09-06T05:52:35;101566.22;;;18.90;100.00
24788;BME280;12883;52.662;5.196;2022-09-06T05:55:01;101563.81;;;18.88;100.00
24788;BME280;12883;52.662;5.196;2022-09-06T05:57:28;101570.94;;;18.94;100.00
24788;BME280;12883;52.662;5.196;2022-09-06T05:59:53;101549.16;;;18.84;100.00
24788;BME280;12883;52.662;5.196;2022-09-06T06:02:20;101556.66;;;18.94;100.00
24788;BME280;12883;52.662;5.196;2022-09-06T06:04:45;101557.13;;;19.02;100.00
24788;BME280;12883;52.662;5.196;2022-09-06T06:07:11;101547.50;;;19.06;100.00
24788;BME280;12883;52.662;5.196;2022-09-06T06:09:36;101542.00;;;19.13;100.00
24788;BME280;12883;52.662;5.196;2022-09-06T06:12:02;101538.59;;;19.17;100.00
24788;BME280;12883;52.662;5.196;2022-09-06T06:14:27;101530.69;;;19.22;100.00
24788;BME280;12883;52.662;5.196;2022-09-06T06:16:53;101532.38;;;19.28;100.00
24788;BME280;12883;52.662;5.196;2022-09-06T06:19:18;101538.38;;;19.30;100.00
24788;BME280;12883;52.662;5.196;2022-09-06T06:21:43;101529.91;;;19.38;100.00
24788;BME280;12883;52.662;5.196;2022-09-06T06:24:09;101521.50;;;19.35;100.00
24788;BME280;12883;52.662;5.196;2022-09-06T06:26:35;101507.44;;;19.44;100.00
24788;BME280;12883;52.662;5.196;2022-09-06T06:29:01;101514.53;;;19.50;100.00
24788;BME280;12883;52.662;5.196;2022-09-06T06:31:31;101522.22;;;19.58;100.00
24788;BME280;12883;52.662;5.196;2022-09-06T06:33:57;101513.66;;;19.61;100.00
24788;BME280;12883;52.662;5.196;2022-09-06T06:36:24;101538.69;;;19.73;100.00
24788;BME280;12883;52.662;5.196;2022-09-06T06:38:52;101527.41;;;19.76;100.00
24788;BME280;12883;52.662;5.196;2022-09-06T06:41:19;101514.53;;;19.78;100.00
24788;BME280;12883;52.662;5.196;2022-09-06T06:43:50;101524.00;;;19.97;100.00
24788;BME280;12883;52.662;5.196;2022-09-06T06:46:17;101522.59;;;20.06;100.00
24788;BME280;12883;52.662;5.196;2022-09-06T06:48:43;101520.81;;;20.12;100.00
24788;BME280;12883;52.662;5.196;2022-09-06T06:51:11;101525.22;;;20.18;100.00
24788;BME280;12883;52.662;5.196;2022-09-06T06:53:37;101501.44;;;20.15;100.00
24788;BME280;12883;52.662;5.196;2022-09-06T06:56:38;101507.00;;;20.25;100.00
24788;BME280;12883;52.662;5.196;2022-09-06T06:59:05;101508.13;;;20.29;100.00
24788;BME280;12883;52.662;5.196;2022-09-06T07:01:33;101505.94;;;20.26;100.00
24788;BME280;12883;52.662;5.196;2022-09-06T07:03:58;101509.69;;;20.25;100.00
24788;BME280;12883;52.662;5.196;2022-09-06T07:06:24;101523.28;;;20.30;100.00
24788;BME280;12883;52.662;5.196;2022-09-06T07:08:52;101516.53;;;20.32;100.00
24788;BME280;12883;52.662;5.196;2022-09-06T07:11:17;101530.94;;;20.38;100.00
24788;BME280;12883;52.662;5.196;2022-09-06T07:13:43;101517.53;;;20.42;100.00
24788;BME280;12883;52.662;5.196;2022-09-06T07:16:14;101497.09;;;20.30;100.00
24788;BME280;12883;52.662;5.196;2022-09-06T07:18:41;101518.53;;;20.53;100.00
24788;BME280;12883;52.662;5.196;2022-09-06T07:21:18;101511.78;;;20.55;100.00
24788;BME280;12883;52.662;5.196;2022-09-06T07:23:44;101510.38;;;20.69;100.00
24788;BME280;12883;52.662;5.196;2022-09-06T07:26:18;101512.50;;;20.67;100.00
24788;BME280;12883;52.662;5.196;2022-09-06T07:28:44;101499.84;;;20.68;100.00
24788;BME280;12883;52.662;5.196;2022-09-06T07:31:11;101507.69;;;20.69;100.00
24788;BME280;12883;52.662;5.196;2022-09-06T07:33:37;101512.91;;;20.76;100.00
24788;BME280;12883;52.662;5.196;2022-09-06T07:36:06;101501.88;;;20.77;100.00
24788;BME280;12883;52.662;5.196;2022-09-06T07:38:33;101503.50;;;20.95;100.00
24788;BME280;12883;52.662;5.196;2022-09-06T07:41:04;101507.19;;;20.89;100.00
24788;BME280;12883;52.662;5.196;2022-09-06T07:43:31;101491.00;;;20.89;100.00
24788;BME280;12883;52.662;5.196;2022-09-06T07:46:02;101502.38;;;21.12;100.00
24788;BME280;12883;52.662;5.196;2022-09-06T07:48:33;101499.91;;;21.11;100.00
24788;BME280;12883;52.662;5.196;2022-09-06T07:51:18;101497.28;;;21.16;100.00
24788;BME280;12883;52.662;5.196;2022-09-06T07:53:51;101495.56;;;21.31;100.00
24788;BME280;12883;52.662;5.196;2022-09-06T07:56:19;101502.34;;;21.34;100.00
24788;BME280;12883;52.662;5.196;2022-09-06T07:58:45;101495.94;;;21.40;100.00
24788;BME280;12883;52.662;5.196;2022-09-06T08:01:29;101496.84;;;21.50;100.00
24788;BME280;12883;52.662;5.196;2022-09-06T08:03:59;101507.28;;;21.42;100.00
24788;BME280;12883;52.662;5.196;2022-09-06T08:06:28;101516.53;;;21.46;100.00
24788;BME280;12883;52.662;5.196;2022-09-06T08:08:54;101493.94;;;21.30;100.00
24788;BME280;12883;52.662;5.196;2022-09-06T08:11:22;101507.09;;;21.48;100.00
24788;BME280;12883;52.662;5.196;2022-09-06T08:13:49;101485.91;;;21.62;100.00
24788;BME280;12883;52.662;5.196;2022-09-06T08:16:15;101506.91;;;21.76;100.00
24788;BME280;12883;52.662;5.196;2022-09-06T08:18:41;101500.09;;;21.74;100.00
24788;BME280;12883;52.662;5.196;2022-09-06T08:21:13;101508.56;;;21.82;100.00
24788;BME280;12883;52.662;5.196;2022-09-06T08:23:43;101505.59;;;21.84;100.00
24788;BME280;12883;52.662;5.196;2022-09-06T08:26:08;101507.88;;;21.92;100.00
24788;BME280;12883;52.662;5.196;2022-09-06T08:28:34;101506.50;;;21.94;100.00
24788;BME280;12883;52.662;5.196;2022-09-06T08:31:11;101505.97;;;21.92;100.00
24788;BME280;12883;52.662;5.196;2022-09-06T08:33:37;101506.84;;;22.03;100.00
24788;BME280;12883;52.662;5.196;2022-09-06T08:36:04;101516.00;;;21.97;100.00
24788;BME280;12883;52.662;5.196;2022-09-06T08:38:30;101514.78;;;22.09;100.00
24788;BME280;12883;52.662;5.196;2022-09-06T08:41:06;101510.22;;;22.15;100.00
24788;BME280;12883;52.662;5.196;2022-09-06T08:43:32;101519.72;;;22.17;100.00
24788;BME280;12883;52.662;5.196;2022-09-06T08:45:57;101508.00;;;22.12;100.00
24788;BME280;12883;52.662;5.196;2022-09-06T08:48:23;101505.31;;;22.12;100.00
24788;BME280;12883;52.662;5.196;2022-09-06T08:51:45;101516.28;;;22.27;100.00
24788;BME280;12883;52.662;5.196;2022-09-06T08:53:44;101511.47;;;22.34;100.00
24788;BME280;12883;52.662;5.196;2022-09-06T08:56:16;101508.72;;;22.29;100.00
24788;BME280;12883;52.662;5.196;2022-09-06T09:01:35;101506.22;;;22.54;100.00
24788;BME280;12883;52.662;5.196;2022-09-06T09:04:12;101507.31;;;22.58;100.00
24788;BME280;12883;52.662;5.196;2022-09-06T09:06:39;101505.69;;;22.57;100.00
24788;BME280;12883;52.662;5.196;2022-09-06T09:09:06;101501.03;;;22.94;100.00
24788;BME280;12883;52.662;5.196;2022-09-06T09:11:33;101509.94;;;22.89;100.00
24788;BME280;12883;52.662;5.196;2022-09-06T09:14:20;101516.91;;;22.75;100.00
24788;BME280;12883;52.662;5.196;2022-09-06T09:16:51;101511.72;;;22.74;100.00
24788;BME280;12883;52.662;5.196;2022-09-06T09:19:17;101510.09;;;22.73;100.00
24788;BME280;12883;52.662;5.196;2022-09-06T09:21:42;101502.91;;;22.88;100.00
24788;BME280;12883;52.662;5.196;2022-09-06T09:24:10;101497.22;;;22.90;100.00
24788;BME280;12883;52.662;5.196;2022-09-06T09:29:29;101499.28;;;23.19;100.00
24788;BME280;12883;52.662;5.196;2022-09-06T09:31:55;101495.38;;;23.00;100.00
24788;BME280;12883;52.662;5.196;2022-09-06T09:34:35;101497.84;;;23.02;100.00
24788;BME280;12883;52.662;5.196;2022-09-06T09:37:23;101494.53;;;22.95;100.00
24788;BME280;12883;52.662;5.196;2022-09-06T09:39:52;101494.03;;;23.03;100.00
24788;BME280;12883;52.662;5.196;2022-09-06T09:42:44;101504.44;;;23.16;100.00
24788;BME280;12883;52.662;5.196;2022-09-06T09:47:44;101506.63;;;23.24;100.00
24788;BME280;12883;52.662;5.196;2022-09-06T09:50:26;101502.56;;;23.31;100.00
24788;BME280;12883;52.662;5.196;2022-09-06T09:52:52;101491.44;;;23.28;100.00
24788;BME280;12883;52.662;5.196;2022-09-06T09:55:22;101503.69;;;23.45;100.00
24788;BME280;12883;52.662;5.196;2022-09-06T09:57:49;101498.28;;;23.45;100.00
24788;BME280;12883;52.662;5.196;2022-09-06T10:00:35;101501.56;;;23.57;100.00
24788;BME280;12883;52.662;5.196;2022-09-06T10:03:14;101500.19;;;23.45;100.00
24788;BME280;12883;52.662;5.196;2022-09-06T10:05:42;101496.09;;;23.42;100.00
24788;BME280;12883;52.662;5.196;2022-09-06T10:08:23;101478.47;;;23.30;100.00
24788;BME280;12883;52.662;5.196;2022-09-06T10:10:50;101489.09;;;23.56;100.00
24788;BME280;12883;52.662;5.196;2022-09-06T10:13:27;101486.91;;;23.58;100.00
24788;BME280;12883;52.662;5.196;2022-09-06T10:15:58;101489.38;;;23.60;100.00
24788;BME280;12883;52.662;5.196;2022-09-06T10:18:42;101483.44;;;23.73;100.00
24788;BME280;12883;52.662;5.196;2022-09-06T10:26:13;101489.44;;;23.95;100.00
24788;BME280;12883;52.662;5.196;2022-09-06T10:28:43;101495.41;;;23.97;100.00
24788;BME280;12883;52.662;5.196;2022-09-06T10:31:33;101491.63;;;24.08;100.00
24788;BME280;12883;52.662;5.196;2022-09-06T10:36:37;101488.06;;;24.47;100.00
24788;BME280;12883;52.662;5.196;2022-09-06T10:39:19;101488.34;;;24.36;100.00
24788;BME280;12883;52.662;5.196;2022-09-06T10:47:13;101491.06;;;24.41;100.00
24788;BME280;12883;52.662;5.196;2022-09-06T10:49:42;101484.53;;;24.32;100.00
24788;BME280;12883;52.662;5.196;2022-09-06T10:52:13;101488.63;;;24.39;100.00
24788;BME280;12883;52.662;5.196;2022-09-06T10:54:41;101497.03;;;24.58;100.00
24788;BME280;12883;52.662;5.196;2022-09-06T10:57:17;101494.81;;;24.75;100.00
24788;BME280;12883;52.662;5.196;2022-09-06T10:59:51;101499.69;;;24.73;100.00
24788;BME280;12883;52.662;5.196;2022-09-06T11:05:24;101525.22;;;24.72;100.00
24788;BME280;12883;52.662;5.196;2022-09-06T11:07:59;101514.56;;;25.00;100.00
24788;BME280;12883;52.662;5.196;2022-09-06T11:10:26;101529.00;;;24.86;100.00
24788;BME280;12883;52.662;5.196;2022-09-06T11:13:15;101531.47;;;24.72;100.00
24788;BME280;12883;52.662;5.196;2022-09-06T11:15:47;101535.47;;;24.95;100.00
24788;BME280;12883;52.662;5.196;2022-09-06T11:23:46;101535.00;;;24.73;100.00
24788;BME280;12883;52.662;5.196;2022-09-06T11:28:44;101560.78;;;24.70;100.00
24788;BME280;12883;52.662;5.196;2022-09-06T11:31:23;101550.50;;;24.67;100.00
24788;BME280;12883;52.662;5.196;2022-09-06T11:34:01;101565.13;;;24.81;100.00
24788;BME280;12883;52.662;5.196;2022-09-06T11:39:05;101577.31;;;24.94;100.00
24788;BME280;12883;52.662;5.196;2022-09-06T11:41:34;101564.78;;;25.08;100.00
24788;BME280;12883;52.662;5.196;2022-09-06T11:44:01;101575.69;;;25.03;100.00
24788;BME280;12883;52.662;5.196;2022-09-06T11:49:08;101564.81;;;24.93;100.00
24788;BME280;12883;52.662;5.196;2022-09-06T11:51:51;101555.25;;;25.15;100.00
24788;BME280;12883;52.662;5.196;2022-09-06T11:54:43;101551.44;;;25.16;100.00
24788;BME280;12883;52.662;5.196;2022-09-06T11:57:16;101547.38;;;25.24;100.00
24788;BME280;12883;52.662;5.196;2022-09-06T12:02:41;101550.63;;;25.21;100.00
24788;BME280;12883;52.662;5.196;2022-09-06T12:05:12;101537.00;;;25.36;100.00
24788;BME280;12883;52.662;5.196;2022-09-06T12:10:44;101537.78;;;25.41;100.00
24788;BME280;12883;52.662;5.196;2022-09-06T12:13:41;101520.94;;;25.39;100.00
24788;BME280;12883;52.662;5.196;2022-09-06T12:16:13;101531.56;;;25.36;100.00
24788;BME280;12883;52.662;5.196;2022-09-06T12:21:33;101518.94;;;25.55;100.00
24788;BME280;12883;52.662;5.196;2022-09-06T12:23:59;101539.75;;;25.31;100.00
24788;BME280;12883;52.662;5.196;2022-09-06T12:29:09;101523.31;;;25.51;100.00
24788;BME280;12883;52.662;5.196;2022-09-06T12:31:39;101524.38;;;25.60;100.00
24788;BME280;12883;52.662;5.196;2022-09-06T12:34:20;101521.66;;;25.60;100.00
24788;BME280;12883;52.662;5.196;2022-09-06T12:37:06;101517.50;;;25.67;100.00
24788;BME280;12883;52.662;5.196;2022-09-06T12:39:35;101529.34;;;25.43;100.00
24788;BME280;12883;52.662;5.196;2022-09-06T12:42:03;101509.28;;;25.29;100.00
24788;BME280;12883;52.662;5.196;2022-09-06T12:44:38;101531.28;;;25.32;100.00
24788;BME280;12883;52.662;5.196;2022-09-06T12:47:13;101514.13;;;25.42;100.00
24788;BME280;12883;52.662;5.196;2022-09-06T12:49:41;101518.56;;;25.23;100.00
24788;BME280;12883;52.662;5.196;2022-09-06T12:52:12;101518.06;;;25.11;100.00
24788;BME280;12883;52.662;5.196;2022-09-06T12:54:44;101499.69;;;24.83;100.00
24788;BME280;12883;52.662;5.196;2022-09-06T12:57:17;101512.44;;;24.77;100.00
24788;BME280;12883;52.662;5.196;2022-09-06T12:59:50;101490.75;;;24.62;100.00
24788;BME280;12883;52.662;5.196;2022-09-06T13:02:21;101504.59;;;24.61;100.00
24788;BME280;12883;52.662;5.196;2022-09-06T13:04:51;101514.34;;;24.82;100.00
24788;BME280;12883;52.662;5.196;2022-09-06T13:07:19;101512.97;;;24.84;100.00
24788;BME280;12883;52.662;5.196;2022-09-06T13:09:47;101507.53;;;24.94;100.00
24788;BME280;12883;52.662;5.196;2022-09-06T13:12:33;101514.31;;;24.97;100.00
24788;BME280;12883;52.662;5.196;2022-09-06T13:15:28;101516.97;;;25.02;100.00
24788;BME280;12883;52.662;5.196;2022-09-06T13:20:44;101507.69;;;25.18;100.00
24788;BME280;12883;52.662;5.196;2022-09-06T13:23:11;101493.56;;;25.26;100.00
24788;BME280;12883;52.662;5.196;2022-09-06T13:25:51;101497.81;;;25.42;100.00
24788;BME280;12883;52.662;5.196;2022-09-06T13:31:01;101492.38;;;25.42;100.00
24788;BME280;12883;52.662;5.196;2022-09-06T13:33:27;101495.66;;;25.39;100.00
24788;BME280;12883;52.662;5.196;2022-09-06T13:38:43;101470.72;;;25.32;100.00
24788;BME280;12883;52.662;5.196;2022-09-06T13:46:40;101449.28;;;25.20;100.00
24788;BME280;12883;52.662;5.196;2022-09-06T13:49:05;101458.47;;;25.29;100.00
24788;BME280;12883;52.662;5.196;2022-09-06T13:51:31;101464.94;;;25.38;100.00
24788;BME280;12883;52.662;5.196;2022-09-06T13:54:10;101473.13;;;25.33;100.00
24788;BME280;12883;52.662;5.196;2022-09-06T13:56:36;101469.53;;;25.43;100.00
24788;BME280;12883;52.662;5.196;2022-09-06T13:59:04;101454.72;;;25.64;100.00
24788;BME280;12883;52.662;5.196;2022-09-06T14:01:31;101459.22;;;25.45;100.00
24788;BME280;12883;52.662;5.196;2022-09-06T14:03:58;101454.91;;;25.39;100.00
24788;BME280;12883;52.662;5.196;2022-09-06T14:06:23;101458.72;;;25.38;100.00
24788;BME280;12883;52.662;5.196;2022-09-06T14:08:49;101462.38;;;25.57;100.00
24788;BME280;12883;52.662;5.196;2022-09-06T14:11:14;101461.31;;;25.58;100.00
24788;BME280;12883;52.662;5.196;2022-09-06T14:13:40;101465.69;;;25.49;100.00
24788;BME280;12883;52.662;5.196;2022-09-06T14:16:06;101458.13;;;25.46;100.00
24788;BME280;12883;52.662;5.196;2022-09-06T14:18:31;101469.19;;;25.54;100.00